Time;durP1;ratioP1;P1;durP2;ratioP2;P2;SDS_P1;SDS_P2;PMS_P1;PMS_P2;Temp;Humidity;BMP_temperature;BMP_pressure;BME280_temperature;BME280_humidity;BME280_pressure;Samples;Min_cycle;Max_cycle;Signal;HPM_P1;HPM_P2
2023/03/11 00:00:25;;;;;;;10.60;4.90;;;;;;;8.78;72.11;95990.88;104919;1260;99278;-70
2023/03/11 00:02:54;;;;;;;11.80;5.40;;;;;;;8.81;72.21;95993.79;104805;1281;99246;-67
2023/03/11 00:05:27;;;;;;;11.90;5.60;;;;;;;8.84;71.90;95990.27;104608;1281;99679;-67
2023/03/11 00:07:55;;;;;;;6.90;3.50;;;;;;;8.87;71.52;95988.18;104690;1266;112564;-68
2023/03/11 00:10:39;;;;;;;10.30;4.80;;;;;;;8.89;71.13;95985.87;104922;1263;100648;-68
2023/03/11 00:13:09;;;;;;;8.70;3.90;;;;;;;8.85;71.10;95988.00;104888;1262;108834;-68
2023/03/11 00:15:37;;;;;;;8.10;3.60;;;;;;;8.81;70.46;95989.04;104546;1274;99418;-68
2023/03/11 00:18:05;;;;;;;4.50;2.40;;;;;;;8.76;69.58;95980.55;104658;1263;101012;-68
2023/03/11 00:20:38;;;;;;;8.70;3.60;;;;;;;8.70;69.17;95983.04;104590;1260;111979;-68
2023/03/11 00:23:07;;;;;;;6.90;2.90;;;;;;;8.64;69.39;95984.20;104866;1260;99327;-68
2023/03/11 00:25:36;;;;;;;5.90;2.40;;;;;;;8.60;69.22;95984.13;104735;1262;108113;-68
2023/03/11 00:28:06;;;;;;;6.10;2.50;;;;;;;8.54;68.68;95985.44;104487;1276;99397;-67
2023/03/11 00:30:33;;;;;;;5.20;1.90;;;;;;;8.51;68.38;95993.63;104767;1262;99581;-67
2023/03/11 00:33:00;;;;;;;4.10;1.50;;;;;;;8.47;69.06;95995.14;104858;1264;99262;-67
2023/03/11 00:35:30;;;;;;;3.30;1.60;;;;;;;8.42;68.79;95996.40;104594;1273;100444;-68
2023/03/11 00:38:00;;;;;;;6.50;2.40;;;;;;;8.39;68.59;95995.41;104575;1275;107588;-67
2023/03/11 00:40:29;;;;;;;3.60;1.60;;;;;;;8.37;68.75;96002.46;104588;1263;99332;-67
2023/03/11 00:42:57;;;;;;;3.40;1.20;;;;;;;8.36;69.27;96000.95;104838;1260;99446;-68
2023/03/11 00:45:27;;;;;;;3.80;1.70;;;;;;;8.34;68.78;96000.30;104814;1260;112785;-66
2023/03/11 00:47:54;;;;;;;2.60;1.20;;;;;;;8.31;68.73;96004.46;104545;1257;100856;-67
2023/03/11 00:50:25;;;;;;;1.90;0.90;;;;;;;8.28;68.20;96004.73;104535;1262;109233;-66
2023/03/11 00:52:51;;;;;;;3.20;1.50;;;;;;;8.30;68.41;96008.04;104816;1262;99353;-66
2023/03/11 00:55:22;;;;;;;6.70;2.60;;;;;;;8.31;68.37;96014.59;104787;1273;99241;-67
2023/03/11 00:57:58;;;;;;;6.80;2.10;;;;;;;8.33;68.02;96016.81;104520;1260;113857;-67
2023/03/11 01:00:27;;;;;;;7.30;2.60;;;;;;;8.35;67.88;96013.04;104482;1267;100543;-66
2023/03/11 01:02:55;;;;;;;5.10;2.30;;;;;;;8.36;67.79;96014.54;104578;1267;107637;-66
2023/03/11 01:05:26;;;;;;;8.20;3.30;;;;;;;8.37;68.13;96017.68;104509;1258;275554;-66
2023/03/11 01:07:53;;;;;;;6.80;3.40;;;;;;;8.38;69.19;96017.06;104643;1260;99788;-66
2023/03/11 01:10:20;;;;;;;10.60;4.70;;;;;;;8.37;69.68;96014.86;104750;1280;99256;-67
2023/03/11 01:12:47;;;;;;;10.50;5.00;;;;;;;8.36;70.03;96015.08;104748;1270;99275;-68
2023/03/11 01:15:28;;;;;;;6.00;3.20;;;;;;;8.31;71.11;96017.89;104728;1263;99452;-68
2023/03/11 01:17:55;;;;;;;5.10;2.40;;;;;;;8.24;71.15;96019.10;104772;1258;99245;-73
2023/03/11 01:20:23;;;;;;;6.30;2.90;;;;;;;8.21;70.83;96018.34;104912;1271;99343;-67
2023/03/11 01:22:50;;;;;;;10.70;4.20;;;;;;;8.18;70.76;96016.03;104976;1262;99270;-68
2023/03/11 01:25:18;;;;;;;12.00;4.70;;;;;;;8.17;70.61;96017.11;104817;1281;99314;-67
2023/03/11 01:27:45;;;;;;;6.90;2.70;;;;;;;8.18;70.98;96018.37;104852;1281;108685;-67
2023/03/11 01:30:16;;;;;;;9.20;3.50;;;;;;;8.18;70.77;96011.35;104942;1262;100543;-67
2023/03/11 01:32:43;;;;;;;5.10;1.90;;;;;;;8.16;70.85;96008.05;104872;1257;99227;-67
2023/03/11 01:35:13;;;;;;;7.60;3.00;;;;;;;8.10;70.62;96001.23;104893;1262;99247;-67
2023/03/11 01:37:40;;;;;;;9.30;2.90;;;;;;;8.05;70.94;96005.27;104909;1262;99428;-67
2023/03/11 01:40:11;;;;;;;7.30;2.80;;;;;;;7.97;70.62;96002.27;104871;1258;100451;-67
2023/03/11 01:42:38;;;;;;;5.70;2.60;;;;;;;7.91;70.49;96004.71;104513;1266;99384;-67
2023/03/11 01:45:42;;;;;;;4.00;1.80;;;;;;;7.81;69.91;96003.21;104887;1263;99263;-67
2023/03/11 01:48:10;;;;;;;4.80;2.40;;;;;;;7.72;69.52;96012.08;104721;1269;113752;-67
2023/03/11 01:50:42;;;;;;;6.90;2.70;;;;;;;7.63;69.67;96011.70;104889;1262;99668;-67
2023/03/11 01:53:11;;;;;;;6.60;2.30;;;;;;;7.58;70.00;96013.31;104897;1271;108373;-67
2023/03/11 01:55:39;;;;;;;4.70;1.90;;;;;;;7.52;70.32;96011.95;104718;1263;99387;-68
2023/03/11 01:58:09;;;;;;;6.20;2.30;;;;;;;7.46;71.10;96010.98;104726;1271;99329;-67
2023/03/11 02:00:37;;;;;;;7.80;2.80;;;;;;;7.40;71.09;96007.73;104543;1260;113084;-67
2023/03/11 02:03:16;;;;;;;6.90;2.80;;;;;;;7.33;71.88;96011.02;104633;1268;99337;-67
2023/03/11 02:05:44;;;;;;;3.40;1.20;;;;;;;7.30;71.44;96012.81;104842;1264;108777;-67
2023/03/11 02:08:11;;;;;;;4.20;1.70;;;;;;;7.23;71.68;96012.06;104648;1265;99444;-68
2023/03/11 02:10:41;;;;;;;5.20;2.40;;;;;;;7.16;72.00;96012.30;104897;1263;99316;-67
2023/03/11 02:13:09;;;;;;;4.40;2.20;;;;;;;7.10;72.44;96009.78;104696;1265;112475;-67
2023/03/11 02:15:36;;;;;;;4.90;2.30;;;;;;;7.05;72.19;96012.30;104939;1263;100525;-67
2023/03/11 02:18:07;;;;;;;2.80;1.40;;;;;;;6.97;71.83;96015.33;104636;1260;107651;-67
2023/03/11 02:20:57;;;;;;;5.60;2.20;;;;;;;6.91;71.72;96013.41;104403;1265;99372;-67
2023/03/11 02:23:35;;;;;;;5.10;2.20;;;;;;;6.87;71.64;96009.20;104670;1260;99240;-67
2023/03/11 02:26:08;;;;;;;7.40;2.70;;;;;;;6.84;71.96;96007.65;104892;1262;113459;-67
2023/03/11 02:28:37;;;;;;;6.20;2.40;;;;;;;6.80;72.21;96012.16;104620;1266;99304;-66
2023/03/11 02:31:04;;;;;;;1.60;0.80;;;;;;;6.75;72.21;96018.20;104584;1277;107516;-67
2023/03/11 02:33:35;;;;;;;3.60;1.60;;;;;;;6.72;72.69;96021.45;104736;1263;99243;-67
2023/03/11 02:36:03;;;;;;;3.70;1.70;;;;;;;6.71;72.63;96022.30;104810;1263;99253;-69
2023/03/11 02:38:30;;;;;;;4.60;1.70;;;;;;;6.71;73.10;96018.80;104622;1260;112582;-72
2023/03/11 02:41:01;;;;;;;3.50;1.70;;;;;;;6.71;72.73;96020.98;104830;1275;99280;-67
2023/03/11 02:43:40;;;;;;;;;;;;;;;6.70;73.06;96018.06;104690;1260;107851;-66
2023/03/11 02:46:10;;;;;;;5.80;2.30;;;;;;;6.66;73.10;96017.60;104596;1276;99412;-66
2023/03/11 02:48:38;;;;;;;3.50;1.90;;;;;;;6.65;73.08;96011.20;104912;1270;99170;-67
2023/03/11 02:51:04;;;;;;;7.10;2.50;;;;;;;6.62;73.05;96008.56;104686;1265;113197;-67
2023/03/11 02:53:36;;;;;;;6.10;2.40;;;;;;;6.59;72.74;96006.55;104889;1260;99249;-67
2023/03/11 02:56:03;;;;;;;2.40;1.30;;;;;;;6.57;72.63;96005.65;104901;1281;109010;-68
2023/03/11 02:58:30;;;;;;;4.40;1.60;;;;;;;6.53;72.34;96004.48;104939;1262;99305;-67
2023/03/11 03:00:57;;;;;;;7.10;2.70;;;;;;;6.50;72.50;96004.39;104919;1267;99243;-68
2023/03/11 03:03:24;;;;;;;2.30;1.30;;;;;;;6.49;72.56;96001.96;104877;1268;99246;-68
2023/03/11 03:05:51;;;;;;;3.40;1.70;;;;;;;6.47;72.36;95998.88;104863;1271;99238;-67
2023/03/11 03:08:18;;;;;;;3.20;1.60;;;;;;;6.46;72.43;95996.76;104886;1271;99325;-67
2023/03/11 03:10:45;;;;;;;5.10;2.50;;;;;;;6.44;72.48;95997.41;104919;1268;99251;-67
2023/03/11 03:13:12;;;;;;;4.60;2.20;;;;;;;6.40;72.76;95996.69;104657;1274;113081;-67
2023/03/11 03:15:39;;;;;;;4.50;2.30;;;;;;;6.33;73.02;95994.84;104909;1262;99321;-67
2023/03/11 03:18:06;;;;;;;6.60;2.00;;;;;;;6.24;74.42;96000.98;104882;1264;99790;-66
2023/03/11 03:20:33;;;;;;;3.80;2.00;;;;;;;6.14;74.30;96005.71;104628;1263;99272;-67
2023/03/11 03:23:00;;;;;;;4.00;1.90;;;;;;;6.02;74.73;96005.87;104612;1264;99323;-67
2023/03/11 03:25:27;;;;;;;5.50;2.00;;;;;;;5.92;75.09;96003.96;104762;1270;99326;-68
2023/03/11 03:27:54;;;;;;;5.00;2.30;;;;;;;5.83;75.51;96005.83;104818;1263;99344;-67
2023/03/11 03:30:21;;;;;;;2.20;1.20;;;;;;;5.74;76.28;95999.00;104766;1279;99281;-68
2023/03/11 03:32:47;;;;;;;6.40;2.00;;;;;;;5.64;76.76;95998.42;104561;1263;99887;-67
2023/03/11 03:35:14;;;;;;;3.40;1.70;;;;;;;5.58;76.57;96006.20;104712;1280;99329;-68
2023/03/11 03:37:41;;;;;;;5.40;2.20;;;;;;;5.53;76.83;96011.72;104679;1273;99967;-68
2023/03/11 03:40:09;;;;;;;4.30;2.10;;;;;;;5.45;77.50;96012.11;104921;1270;99335;-68
2023/03/11 03:42:37;;;;;;;3.90;1.90;;;;;;;5.35;78.01;96015.81;104724;1271;99164;-68
2023/03/11 03:45:06;;;;;;;7.40;2.40;;;;;;;5.27;79.04;96017.91;104990;1262;99228;-69
2023/03/11 03:47:34;;;;;;;4.70;1.80;;;;;;;5.19;78.62;96021.78;104834;1270;113801;-67
2023/03/11 03:50:04;;;;;;;3.10;1.70;;;;;;;5.13;79.25;96024.02;104538;1267;99336;-71
2023/03/11 03:52:31;;;;;;;5.40;2.40;;;;;;;5.08;79.50;96026.29;104687;1262;108904;-70
2023/03/11 03:54:58;;;;;;;6.10;2.60;;;;;;;5.06;79.85;96024.67;104671;1262;99350;-69
2023/03/11 03:57:24;;;;;;;3.20;1.90;;;;;;;5.04;79.93;96019.98;104760;1262;100434;-70
2023/03/11 03:59:51;;;;;;;2.80;1.50;;;;;;;4.99;79.48;96018.67;104662;1268;99326;-71
2023/03/11 04:02:18;;;;;;;3.80;1.80;;;;;;;4.96;79.98;96017.48;104852;1263;99316;-76
2023/03/11 04:04:46;;;;;;;3.70;1.90;;;;;;;4.91;80.42;96012.23;104777;1263;100613;-74
2023/03/11 04:07:12;;;;;;;3.20;2.10;;;;;;;4.88;80.22;96018.16;104972;1270;100908;-73
2023/03/11 04:09:41;;;;;;;4.00;2.00;;;;;;;4.78;80.78;96012.54;105007;1270;99336;-79
2023/03/11 04:12:14;;;;;;;3.00;1.40;;;;;;;4.67;81.38;96012.58;104948;1270;99186;-81
2023/03/11 04:14:40;;;;;;;3.30;1.90;;;;;;;4.56;81.95;96015.36;104836;1258;108634;-79
2023/03/11 04:17:10;;;;;;;3.10;1.50;;;;;;;4.47;82.82;96015.45;104809;1272;100618;-77
2023/03/11 04:19:37;;;;;;;2.90;1.50;;;;;;;4.40;83.42;96013.23;104609;1276;99242;-76
2023/03/11 04:22:04;;;;;;;2.60;1.50;;;;;;;4.33;84.65;96010.52;104939;1257;113508;-79
2023/03/11 04:24:31;;;;;;;4.30;1.90;;;;;;;4.29;84.26;96012.26;104972;1267;99474;-72
2023/03/11 04:26:58;;;;;;;6.10;2.60;;;;;;;4.26;84.19;96022.17;104930;1270;99269;-80
2023/03/11 04:29:25;;;;;;;2.40;1.10;;;;;;;4.23;84.92;96017.80;104968;1271;99187;-79
2023/03/11 04:31:52;;;;;;;4.30;1.90;;;;;;;4.16;83.95;96020.98;104885;1257;99366;-79
2023/03/11 04:34:19;;;;;;;3.90;2.10;;;;;;;4.09;83.66;96021.52;105004;1270;99348;-75
2023/03/11 04:36:46;;;;;;;6.20;2.50;;;;;;;4.02;83.07;96018.81;104910;1273;108892;-74
2023/03/11 04:39:14;;;;;;;2.50;1.10;;;;;;;3.95;82.82;96015.14;105232;1270;100552;-78
2023/03/11 04:41:41;;;;;;;4.50;2.00;;;;;;;3.85;82.05;96026.69;105597;1273;99735;-78
2023/03/11 04:44:07;;;;;;;3.10;1.70;;;;;;;3.77;81.07;96022.87;104997;1271;99315;-77
2023/03/11 04:46:34;;;;;;;1.50;1.00;;;;;;;3.73;80.76;96025.31;104845;1270;100034;-72
2023/03/11 04:49:01;;;;;;;1.90;1.10;;;;;;;3.69;81.38;96023.98;104893;1263;99272;-72
2023/03/11 04:51:28;;;;;;;10.40;3.30;;;;;;;3.68;81.77;96030.84;104995;1263;99323;-72
2023/03/11 04:53:54;;;;;;;6.40;2.00;;;;;;;3.66;82.02;96032.64;104696;1263;113129;-71
2023/03/11 04:56:21;;;;;;;4.00;1.70;;;;;;;3.61;81.70;96035.27;104838;1264;99923;-73
2023/03/11 04:58:48;;;;;;;3.20;1.40;;;;;;;3.57;80.99;96035.94;104878;1264;99252;-72
2023/03/11 05:01:15;;;;;;;3.00;1.20;;;;;;;3.50;80.79;96042.91;104795;1270;99259;-72
2023/03/11 05:03:42;;;;;;;2.90;1.00;;;;;;;3.43;80.65;96054.19;104986;1264;100543;-71
2023/03/11 05:06:09;;;;;;;3.80;1.60;;;;;;;3.37;79.91;96059.95;105020;1262;99326;-71
2023/03/11 05:08:36;;;;;;;2.50;1.00;;;;;;;3.29;80.43;96060.23;104834;1271;108486;-70
2023/03/11 05:11:03;;;;;;;2.90;1.40;;;;;;;3.23;80.26;96064.20;104843;1262;100568;-68
2023/03/11 05:13:30;;;;;;;4.60;1.90;;;;;;;3.19;80.53;96065.63;104873;1262;99309;-68
2023/03/11 05:15:58;;;;;;;12.70;3.70;;;;;;;3.18;80.06;96071.45;104766;1270;99161;-67
2023/03/11 05:18:25;;;;;;;7.20;2.30;;;;;;;3.19;79.59;96074.27;104765;1272;99237;-68
2023/03/11 05:20:53;;;;;;;14.40;4.90;;;;;;;3.19;79.18;96076.75;104703;1267;99260;-73
2023/03/11 05:23:20;;;;;;;10.90;3.60;;;;;;;3.20;79.64;96082.19;104789;1272;100558;-67
2023/03/11 05:25:47;;;;;;;6.00;2.30;;;;;;;3.19;79.83;96085.95;104809;1262;99320;-69
2023/03/11 05:28:14;;;;;;;11.30;4.10;;;;;;;3.13;79.61;96089.30;104927;1263;99651;-68
2023/03/11 05:30:41;;;;;;;6.90;1.90;;;;;;;3.09;79.44;96091.69;104882;1271;99926;-65
2023/03/11 05:33:08;;;;;;;19.20;6.70;;;;;;;3.03;79.52;96097.26;104782;1262;99256;-67
2023/03/11 05:35:35;;;;;;;12.50;5.40;;;;;;;2.96;79.93;96102.10;104916;1263;99266;-67
2023/03/11 05:38:03;;;;;;;8.40;3.50;;;;;;;2.92;79.78;96102.87;104643;1271;113630;-67
2023/03/11 05:40:31;;;;;;;5.40;2.60;;;;;;;2.83;79.41;96103.29;104931;1271;99280;-68
2023/03/11 05:43:06;;;;;;;1.50;1.00;;;;;;;2.79;80.00;96106.08;104883;1263;108090;-66
2023/03/11 05:45:34;;;;;;;3.00;1.30;;;;;;;2.73;79.68;96106.16;104867;1271;99303;-67
2023/03/11 05:48:00;;;;;;;9.60;4.00;;;;;;;2.72;79.66;96109.19;104963;1261;99269;-66
2023/03/11 05:50:27;;;;;;;2.80;1.60;;;;;;;2.71;79.12;96113.11;104902;1270;99645;-67
2023/03/11 05:52:54;;;;;;;2.70;1.70;;;;;;;2.71;79.15;96116.35;104917;1270;99212;-67
2023/03/11 05:55:22;;;;;;;1.90;1.30;;;;;;;2.73;79.63;96125.56;104964;1262;99276;-67
2023/03/11 05:57:51;;;;;;;1.40;1.00;;;;;;;2.74;79.04;96125.59;104709;1263;100513;-68
2023/03/11 06:00:19;;;;;;;4.10;2.20;;;;;;;2.73;78.80;96141.16;104930;1261;100543;-68
2023/03/11 06:02:46;;;;;;;1.60;0.80;;;;;;;2.68;78.99;96144.52;105017;1263;99385;-66
2023/03/11 06:05:13;;;;;;;4.00;2.00;;;;;;;2.60;79.35;96145.66;104922;1264;99279;-67
2023/03/11 06:07:40;;;;;;;3.80;1.90;;;;;;;2.52;79.73;96162.90;104944;1270;99271;-65
2023/03/11 06:10:08;;;;;;;4.10;1.30;;;;;;;2.43;80.30;96170.21;104929;1271;99926;-67
2023/03/11 06:12:37;;;;;;;2.60;1.20;;;;;;;2.29;81.15;96176.97;104920;1262;99350;-65
2023/03/11 06:15:07;;;;;;;1.40;1.10;;;;;;;2.12;82.32;96180.04;104898;1270;113466;-65
2023/03/11 06:17:34;;;;;;;1.40;0.90;;;;;;;1.97;82.93;96193.69;104907;1267;99431;-65
2023/03/11 06:20:03;;;;;;;3.00;1.30;;;;;;;1.84;83.30;96202.31;104944;1260;99320;-64
2023/03/11 06:22:30;;;;;;;2.30;1.30;;;;;;;1.75;83.47;96210.02;104825;1279;100443;-66
2023/03/11 06:24:57;;;;;;;2.00;1.00;;;;;;;1.66;84.50;96216.72;104908;1261;99265;-65
2023/03/11 06:27:25;;;;;;;1.10;0.90;;;;;;;1.59;84.87;96229.95;104868;1270;99251;-67
2023/03/11 06:29:53;;;;;;;2.90;1.60;;;;;;;1.48;85.85;96234.40;104913;1271;99729;-69
2023/03/11 06:32:20;;;;;;;3.70;1.20;;;;;;;1.42;85.87;96233.62;104937;1273;108356;-69
2023/03/11 06:34:52;;;;;;;2.30;1.40;;;;;;;1.38;86.31;96231.99;104888;1258;99242;-69
2023/03/11 06:37:19;;;;;;;;;;;;;;;1.34;86.69;96236.04;104652;1263;99353;-70
2023/03/11 06:39:51;;;;;;;2.40;1.20;;;;;;;1.29;87.39;96237.76;104921;1269;113735;-70
2023/03/11 06:42:19;;;;;;;4.50;1.70;;;;;;;1.25;87.87;96242.77;104705;1266;99224;-70
2023/03/11 06:44:51;;;;;;;1.60;1.10;;;;;;;1.23;87.93;96244.56;104603;1267;108118;-72
2023/03/11 06:47:25;;;;;;;1.30;1.00;;;;;;;1.19;88.22;96248.64;104725;1270;99265;-72
2023/03/11 06:49:56;;;;;;;1.90;1.20;;;;;;;1.15;88.45;96252.96;105018;1271;99234;-69
2023/03/11 06:52:26;;;;;;;1.20;0.90;;;;;;;1.06;88.72;96261.30;104935;1270;113036;-72
2023/03/11 06:54:53;;;;;;;3.20;1.40;;;;;;;0.95;88.66;96258.11;104944;1264;99307;-70
2023/03/11 06:57:20;;;;;;;1.90;1.10;;;;;;;0.89;89.41;96269.13;104873;1261;99685;-70
2023/03/11 06:59:48;;;;;;;2.20;1.10;;;;;;;0.84;89.35;96276.15;104937;1270;99306;-70
2023/03/11 07:02:15;;;;;;;2.80;1.40;;;;;;;0.80;89.78;96278.83;104960;1261;99249;-69
2023/03/11 07:04:42;;;;;;;3.60;2.20;;;;;;;0.79;90.09;96283.56;104917;1280;99237;-69
2023/03/11 07:07:09;;;;;;;11.50;4.90;;;;;;;0.79;90.44;96287.16;104869;1263;99319;-69
2023/03/11 07:09:36;;;;;;;10.40;4.70;;;;;;;0.83;90.38;96286.95;104897;1270;99225;-69
2023/03/11 07:12:04;;;;;;;3.20;2.60;;;;;;;0.85;91.07;96290.30;104927;1263;99281;-67
2023/03/11 07:14:32;;;;;;;6.40;3.00;;;;;;;0.89;90.95;96296.73;104969;1260;99293;-69
2023/03/11 07:17:00;;;;;;;5.60;2.90;;;;;;;0.93;91.67;96295.71;104923;1267;99259;-69
2023/03/11 07:19:27;;;;;;;6.40;3.00;;;;;;;0.99;91.71;96297.30;104942;1277;100445;-69
2023/03/11 07:21:54;;;;;;;4.00;2.60;;;;;;;1.03;91.93;96303.02;104969;1270;99383;-70
2023/03/11 07:24:21;;;;;;;7.60;3.30;;;;;;;1.06;91.54;96300.95;104865;1263;99326;-69
2023/03/11 07:26:48;;;;;;;4.70;3.10;;;;;;;1.08;91.78;96309.40;104883;1270;99364;-69
2023/03/11 07:29:15;;;;;;;5.40;3.00;;;;;;;1.10;91.51;96310.98;105007;1270;99340;-69
2023/03/11 07:31:42;;;;;;;7.70;4.40;;;;;;;1.11;91.28;96311.77;104909;1262;108553;-68
2023/03/11 07:34:11;;;;;;;8.60;4.00;;;;;;;1.14;91.22;96320.23;104975;1269;100578;-68
2023/03/11 07:36:41;;;;;;;9.00;5.00;;;;;;;1.18;91.21;96321.24;104865;1270;100457;-68
2023/03/11 07:39:13;;;;;;;11.60;6.00;;;;;;;1.18;91.05;96323.29;104927;1263;113076;-68
2023/03/11 07:41:40;;;;;;;13.60;6.40;;;;;;;1.19;90.73;96330.18;104927;1270;99409;-68
2023/03/11 07:44:11;;;;;;;13.60;6.20;;;;;;;1.18;91.05;96329.28;104932;1273;99364;-69
2023/03/11 07:46:39;;;;;;;11.10;5.10;;;;;;;1.22;90.69;96332.86;104908;1263;100680;-68
2023/03/11 07:49:06;;;;;;;15.10;6.90;;;;;;;1.21;91.17;96339.84;104604;1267;99585;-68
2023/03/11 07:51:35;;;;;;;11.40;6.20;;;;;;;1.21;91.23;96346.08;104784;1263;113527;-68
2023/03/11 07:54:06;;;;;;;8.60;4.90;;;;;;;1.21;91.52;96349.55;104761;1270;99265;-69
2023/03/11 07:56:34;;;;;;;9.40;4.70;;;;;;;1.20;91.55;96353.30;104776;1261;108803;-69
2023/03/11 07:59:03;;;;;;;21.00;9.00;;;;;;;1.21;91.14;96362.66;104710;1270;99172;-68
2023/03/11 08:01:35;;;;;;;12.40;6.10;;;;;;;1.21;91.21;96367.48;104870;1261;99442;-69
2023/03/11 08:04:05;;;;;;;19.00;8.20;;;;;;;1.18;91.68;96379.15;104466;1266;113243;-68
2023/03/11 08:06:34;;;;;;;9.30;4.80;;;;;;;1.18;91.23;96381.02;104749;1261;99218;-67
2023/03/11 08:09:04;;;;;;;19.00;8.10;;;;;;;1.20;91.40;96384.11;104663;1270;108250;-69
2023/03/11 08:11:31;;;;;;;12.70;5.60;;;;;;;1.23;91.94;96385.17;104648;1267;99332;-69
2023/03/11 08:13:58;;;;;;;15.80;6.90;;;;;;;1.24;92.02;96386.96;104776;1260;99254;-69
2023/03/11 08:16:26;;;;;;;10.00;4.70;;;;;;;1.24;92.07;96388.86;104851;1271;99232;-69
2023/03/11 08:18:54;;;;;;;8.90;4.30;;;;;;;1.23;92.28;96397.04;104951;1272;99355;-69
2023/03/11 08:21:24;;;;;;;13.20;6.20;;;;;;;1.25;92.10;96397.22;104657;1273;99255;-69
2023/03/11 08:23:56;;;;;;;11.20;5.50;;;;;;;1.28;92.00;96403.84;104433;1267;99256;-69
2023/03/11 08:26:24;;;;;;;10.40;5.60;;;;;;;1.28;92.02;96406.25;104417;1272;101016;-68
2023/03/11 08:28:51;;;;;;;5.70;3.30;;;;;;;1.29;91.97;96408.35;104776;1261;113460;-69
2023/03/11 08:31:23;;;;;;;6.30;3.30;;;;;;;1.27;91.78;96411.14;104684;1262;99244;-69
2023/03/11 08:33:53;;;;;;;6.40;3.20;;;;;;;1.25;91.69;96416.81;104512;1264;106568;-69
2023/03/11 08:36:20;;;;;;;6.20;2.90;;;;;;;1.23;91.59;96416.54;104739;1261;99682;-69
2023/03/11 08:38:47;;;;;;;6.40;3.60;;;;;;;1.15;91.97;96420.01;104656;1260;99387;-69
2023/03/11 08:41:15;;;;;;;4.90;3.30;;;;;;;1.10;92.04;96417.90;104867;1257;99227;-69
2023/03/11 08:43:43;;;;;;;4.20;3.00;;;;;;;1.07;92.07;96424.38;104703;1261;99249;-69
2023/03/11 08:46:34;;;;;;;7.60;3.10;;;;;;;1.02;91.94;96426.46;104378;1267;109534;-69
2023/03/11 08:49:02;;;;;;;;;;;;;;;0.94;91.91;96431.83;104905;1270;99242;-69
2023/03/11 08:51:31;;;;;;;3.50;2.20;;;;;;;0.90;92.00;96436.90;104986;1261;99342;-69
2023/03/11 08:53:59;;;;;;;7.60;2.00;;;;;;;0.84;92.14;96435.77;104591;1276;112500;-69
2023/03/11 08:56:27;;;;;;;6.50;3.20;;;;;;;0.82;92.00;96440.39;104730;1259;99330;-69
2023/03/11 08:58:54;;;;;;;6.50;3.10;;;;;;;0.83;92.21;96442.05;104576;1274;109430;-69
2023/03/11 09:01:22;;;;;;;3.80;2.60;;;;;;;0.83;92.08;96446.81;104783;1264;99246;-69
2023/03/11 09:03:50;;;;;;;4.30;2.60;;;;;;;0.76;92.05;96450.84;104538;1267;99833;-69
2023/03/11 09:06:17;;;;;;;6.80;3.30;;;;;;;0.69;92.36;96455.19;104796;1260;112930;-70
2023/03/11 09:08:46;;;;;;;4.10;2.90;;;;;;;0.70;92.34;96462.85;104554;1264;99363;-70
2023/03/11 09:11:15;;;;;;;6.20;3.60;;;;;;;0.68;92.41;96465.30;104895;1280;108564;-69
2023/03/11 09:13:43;;;;;;;7.50;3.60;;;;;;;0.68;92.63;96469.84;104907;1263;99297;-70
2023/03/11 09:16:15;;;;;;;4.60;3.50;;;;;;;0.68;92.57;96473.71;104601;1270;100226;-69
2023/03/11 09:18:44;;;;;;;6.10;3.70;;;;;;;0.63;92.27;96485.73;104695;1265;112723;-70
2023/03/11 09:21:11;;;;;;;6.00;3.70;;;;;;;0.59;92.17;96487.39;104943;1262;99253;-69
2023/03/11 09:23:40;;;;;;;6.50;4.20;;;;;;;0.58;92.67;96493.64;104918;1272;108436;-68
2023/03/11 09:26:10;;;;;;;6.40;3.80;;;;;;;0.57;92.75;96500.23;104596;1272;100538;-69
2023/03/11 09:28:38;;;;;;;5.40;2.80;;;;;;;0.56;92.75;96501.34;104585;1263;100661;-69
2023/03/11 09:31:06;;;;;;;8.00;4.40;;;;;;;0.53;93.15;96504.16;104605;1276;112669;-69
2023/03/11 09:33:38;;;;;;;9.20;4.60;;;;;;;0.53;93.37;96505.34;104757;1262;99328;-72
2023/03/11 09:36:06;;;;;;;5.80;3.90;;;;;;;0.54;93.53;96509.42;104805;1264;108437;-71
2023/03/11 09:38:33;;;;;;;7.10;3.60;;;;;;;0.51;93.71;96511.85;104925;1271;99388;-70
2023/03/11 09:41:32;;;;;;;5.20;3.30;;;;;;;0.49;93.86;96517.20;105013;1261;99858;-70
2023/03/11 09:44:17;;;;;;;5.60;2.70;;;;;;;0.47;93.81;96519.33;104422;1278;113739;-71
2023/03/11 09:47:02;;;;;;;5.20;3.00;;;;;;;0.46;93.90;96527.65;104393;1268;99496;-71
2023/03/11 09:50:15;;;;;;;3.80;2.60;;;;;;;0.42;93.78;96527.77;104490;1279;108046;-71
2023/03/11 09:52:51;;;;;;;4.30;2.50;;;;;;;0.37;94.17;96531.01;104323;1269;99349;-71
2023/03/11 09:55:48;;;;;;;5.60;3.50;;;;;;;0.34;94.37;96534.39;104416;1280;99762;-69
2023/03/11 09:58:28;;;;;;;4.80;3.10;;;;;;;0.34;94.32;96535.19;104116;1271;112590;-69
2023/03/11 10:00:55;;;;;;;3.50;2.10;;;;;;;0.35;94.39;96544.49;104047;1277;99334;-69
2023/03/11 10:03:25;;;;;;;5.60;3.30;;;;;;;0.33;94.41;96547.13;104055;1273;108165;-68
2023/03/11 10:06:00;;;;;;;6.70;3.60;;;;;;;0.35;94.23;96558.08;104111;1279;99605;-69
2023/03/11 10:08:52;;;;;;;9.20;4.80;;;;;;;0.37;94.15;96564.30;104166;1278;101087;-69
2023/03/11 10:11:43;;;;;;;5.80;3.90;;;;;;;0.40;94.20;96575.13;103732;1274;113519;-68
2023/03/11 10:14:26;;;;;;;5.50;3.30;;;;;;;0.43;94.26;96584.08;103822;1285;99415;-68
2023/03/11 10:17:14;;;;;;;9.20;4.50;;;;;;;0.45;94.13;96586.64;103835;1278;108192;-68
2023/03/11 10:20:20;;;;;;;5.70;3.10;;;;;;;0.46;94.05;96596.59;103853;1276;99289;-68
2023/03/11 10:23:07;;;;;;;7.60;3.00;;;;;;;0.45;93.80;96596.33;104181;1270;99804;-67
2023/03/11 10:25:52;;;;;;;5.40;2.90;;;;;;;0.45;93.59;96605.11;104157;1279;114747;-68
2023/03/11 10:28:23;;;;;;;7.80;4.00;;;;;;;0.46;93.45;96614.05;104135;1267;99681;-68
2023/03/11 10:31:00;;;;;;;6.00;3.40;;;;;;;0.48;93.66;96618.92;104097;1268;108295;-68
2023/03/11 10:34:16;;;;;;;4.30;2.60;;;;;;;0.50;93.45;96627.66;103919;1282;100697;-67
2023/03/11 10:36:47;;;;;;;5.10;2.40;;;;;;;0.46;93.36;96627.52;104029;1266;99942;-68
2023/03/11 10:39:14;;;;;;;5.70;2.80;;;;;;;0.45;93.19;96645.73;103881;1285;113908;-67
2023/03/11 10:41:49;;;;;;;4.80;2.90;;;;;;;0.44;93.28;96650.73;104128;1270;99450;-67
2023/03/11 10:44:32;;;;;;;6.20;3.00;;;;;;;0.42;93.25;96660.41;104158;1268;108663;-68
2023/03/11 10:47:01;;;;;;;5.40;3.30;;;;;;;0.37;93.48;96665.58;104009;1279;99285;-68
2023/03/11 10:49:29;;;;;;;7.50;3.90;;;;;;;0.32;93.48;96671.90;104438;1263;99753;-67
2023/03/11 10:51:57;;;;;;;3.60;2.10;;;;;;;0.31;93.49;96677.95;104672;1257;112812;-69
2023/03/11 10:54:34;;;;;;;3.60;2.30;;;;;;;0.26;93.41;96683.27;104705;1262;99223;-69
2023/03/11 10:57:03;;;;;;;3.70;2.50;;;;;;;0.25;93.65;96694.00;104894;1263;108603;-67
2023/03/11 10:59:46;;;;;;;3.90;2.50;;;;;;;0.24;93.69;96697.41;104640;1272;99406;-67
2023/03/11 11:02:37;;;;;;;5.40;2.70;;;;;;;0.22;93.63;96701.16;104600;1265;99747;-67
2023/03/11 11:05:13;;;;;;;4.10;2.40;;;;;;;0.24;93.77;96707.05;104432;1265;112957;-67
2023/03/11 11:07:41;;;;;;;3.10;1.90;;;;;;;0.25;93.65;96716.48;104744;1264;99249;-67
2023/03/11 11:10:12;;;;;;;4.30;2.30;;;;;;;0.24;93.56;96722.80;104737;1272;108715;-66
2023/03/11 11:13:16;;;;;;;4.40;2.70;;;;;;;0.25;93.49;96729.63;104879;1260;99256;-66
2023/03/11 11:15:49;;;;;;;3.80;2.90;;;;;;;0.31;93.46;96737.61;104873;1260;99746;-69
2023/03/11 11:18:41;;;;;;;5.30;2.90;;;;;;;0.33;93.28;96743.50;104753;1270;113088;-69
2023/03/11 11:21:32;;;;;;;6.50;3.10;;;;;;;0.30;93.41;96749.05;104578;1275;100904;-69
2023/03/11 11:24:04;;;;;;;4.60;2.80;;;;;;;0.29;93.70;96755.90;104931;1256;108555;-69
2023/03/11 11:26:32;;;;;;;4.10;2.70;;;;;;;0.26;93.63;96765.49;104897;1270;99271;-69
2023/03/11 11:29:11;;;;;;;4.80;2.40;;;;;;;0.22;93.97;96778.64;104792;1260;99279;-69
2023/03/11 11:31:44;;;;;;;3.60;2.10;;;;;;;0.16;94.02;96781.27;104453;1266;113213;-71
2023/03/11 11:34:31;;;;;;;4.20;2.60;;;;;;;0.14;94.11;96787.33;104813;1262;99264;-71
2023/03/11 11:37:02;;;;;;;4.20;2.40;;;;;;;0.15;94.11;96788.60;104806;1261;108348;-69
2023/03/11 11:39:50;;;;;;;5.50;3.20;;;;;;;0.14;93.71;96789.52;104789;1258;99272;-69
2023/03/11 11:42:19;;;;;;;5.80;3.40;;;;;;;0.18;93.73;96797.79;104791;1260;99807;-69
2023/03/11 11:44:51;;;;;;;5.10;3.10;;;;;;;0.20;93.62;96801.73;104838;1261;113613;-70